createdAt,value
2019-03-27T00:01:12.002Z,15.83
2019-03-27T00:04:16.379Z,16.87
2019-03-27T00:07:21.061Z,17.10
2019-03-27T00:10:25.482Z,17.17
2019-03-27T00:13:30.586Z,18.33
2019-03-27T00:16:35.069Z,20.80
2019-03-27T00:19:39.828Z,15.27
2019-03-27T00:22:44.499Z,14.23
2019-03-27T00:25:49.125Z,17.27
2019-03-27T00:28:53.702Z,16.13
2019-03-27T00:31:58.535Z,17.70
2019-03-27T00:35:03.202Z,17.97
2019-03-27T00:38:07.784Z,21.83
2019-03-27T00:41:12.381Z,16.50
2019-03-27T00:44:17.087Z,20.27
2019-03-27T00:47:22.016Z,18.13
2019-03-27T00:50:26.844Z,19.10
2019-03-27T00:53:31.383Z,19.60
2019-03-27T00:56:36.308Z,16.67
2019-03-27T00:59:41.143Z,18.53
2019-03-27T01:02:46.917Z,18.50
2019-03-27T01:05:52.238Z,16.50
2019-03-27T01:08:57.513Z,17.03
2019-03-27T01:12:02.312Z,13.37
2019-03-27T01:15:07.356Z,17.17
2019-03-27T01:18:11.745Z,18.60
2019-03-27T01:21:16.509Z,16.70
2019-03-27T01:24:21.035Z,19.07
2019-03-27T01:27:25.375Z,20.07
2019-03-27T01:30:29.825Z,18.50
2019-03-27T01:33:35.859Z,17.40
2019-03-27T01:36:40.589Z,16.57
2019-03-27T01:39:45.114Z,17.07
2019-03-27T01:42:49.535Z,19.17
2019-03-27T01:45:53.960Z,19.33
2019-03-27T01:48:58.676Z,18.70
2019-03-27T01:52:03.768Z,19.20
2019-03-27T01:55:09.193Z,18.20
2019-03-27T01:58:13.997Z,17.10
2019-03-27T02:01:18.595Z,25.30
2019-03-27T02:04:23.264Z,15.77
2019-03-27T02:07:28.005Z,16.60
2019-03-27T02:10:32.480Z,18.77
2019-03-27T02:13:36.931Z,17.27
2019-03-27T02:16:41.440Z,17.23
2019-03-27T02:19:46.290Z,18.33
2019-03-27T02:22:51.114Z,19.27
2019-03-27T02:25:55.597Z,17.10
2019-03-27T02:29:00.310Z,16.73
2019-03-27T02:32:04.837Z,15.87
2019-03-27T02:35:09.599Z,16.33
2019-03-27T02:38:14.292Z,19.97
2019-03-27T02:41:18.767Z,17.30
2019-03-27T02:44:23.466Z,20.07
2019-03-27T02:47:28.331Z,16.37
2019-03-27T02:50:32.838Z,19.00
2019-03-27T02:53:37.258Z,18.63
2019-03-27T02:56:41.905Z,17.60
2019-03-27T02:59:46.332Z,18.37
2019-03-27T03:02:53.250Z,16.60
2019-03-27T03:05:57.741Z,22.37
2019-03-27T03:09:03.193Z,19.73
2019-03-27T03:12:07.754Z,20.90
2019-03-27T03:15:12.888Z,15.83
2019-03-27T03:18:17.767Z,19.50
2019-03-27T03:21:22.180Z,18.43
2019-03-27T03:24:30.208Z,18.50
2019-03-27T03:27:34.709Z,18.27
2019-03-27T03:30:39.171Z,19.77
2019-03-27T03:33:44.634Z,21.33
2019-03-27T03:36:49.138Z,22.40
2019-03-27T03:39:54.393Z,17.57
2019-03-27T03:42:59.428Z,22.30
2019-03-27T03:46:04.196Z,23.47
2019-03-27T03:49:08.982Z,21.03
2019-03-27T03:52:17.445Z,22.73
2019-03-27T03:55:21.927Z,20.93
2019-03-27T03:58:29.075Z,20.30
2019-03-27T04:01:35.747Z,18.30
2019-03-27T04:04:41.768Z,20.70
2019-03-27T04:07:46.409Z,21.03
2019-03-27T04:10:50.920Z,20.13
2019-03-27T04:13:55.974Z,20.60
2019-03-27T04:17:16.243Z,17.17
2019-03-27T04:20:07.860Z,22.30
2019-03-27T04:23:12.560Z,23.97
2019-03-27T04:26:17.046Z,21.37
2019-03-27T04:29:21.572Z,20.60
2019-03-27T04:32:26.399Z,23.33
2019-03-27T04:35:31.232Z,20.97
2019-03-27T04:38:35.923Z,21.87
2019-03-27T04:41:40.676Z,23.60
2019-03-27T04:44:45.255Z,19.43
2019-03-27T04:47:49.666Z,20.37
2019-03-27T04:50:55.137Z,19.90
2019-03-27T04:53:59.609Z,20.83
2019-03-27T04:57:04.126Z,21.80
2019-03-27T05:00:12.532Z,20.27
2019-03-27T05:03:16.935Z,19.13
2019-03-27T05:06:21.346Z,23.30
2019-03-27T05:09:26.107Z,21.57
2019-03-27T05:12:32.092Z,23.10
2019-03-27T05:15:36.717Z,23.23
2019-03-27T05:18:41.244Z,23.37
2019-03-27T05:21:45.855Z,19.37
2019-03-27T05:24:50.570Z,23.10
2019-03-27T05:27:55.114Z,21.30
2019-03-27T05:30:59.877Z,20.60
2019-03-27T05:34:04.522Z,20.23
2019-03-27T05:37:08.993Z,21.00
2019-03-27T05:40:13.553Z,24.60
2019-03-27T05:43:18.435Z,24.03
2019-03-27T05:46:26.378Z,22.07
2019-03-27T05:49:29.331Z,22.43
2019-03-27T05:52:33.733Z,25.53
2019-03-27T05:55:38.184Z,20.73
2019-03-27T05:58:43.668Z,25.63
2019-03-27T06:01:48.164Z,27.40
2019-03-27T06:04:52.628Z,25.40
2019-03-27T06:07:57.043Z,24.20
2019-03-27T06:11:02.595Z,24.30
2019-03-27T06:14:08.345Z,24.47
2019-03-27T06:17:12.806Z,24.73
2019-03-27T06:20:17.318Z,29.73
2019-03-27T06:23:22.087Z,25.57
2019-03-27T06:26:26.634Z,28.03
2019-03-27T06:29:31.243Z,33.23
2019-03-27T06:32:38.956Z,25.43
2019-03-27T06:35:43.531Z,28.57
2019-03-27T06:38:47.998Z,29.20
2019-03-27T06:41:53.222Z,31.70
2019-03-27T06:44:57.901Z,29.33
2019-03-27T06:48:02.971Z,30.13
2019-03-27T06:51:07.758Z,27.17
2019-03-27T06:54:12.309Z,30.83
2019-03-27T06:57:17.027Z,29.33
2019-03-27T07:00:32.600Z,26.17
2019-03-27T07:03:37.082Z,31.90
2019-03-27T07:06:41.554Z,33.17
2019-03-27T07:09:46.087Z,32.37
2019-03-27T07:12:50.785Z,32.37
2019-03-27T07:15:55.372Z,37.27
2019-03-27T07:18:59.815Z,43.87
2019-03-27T07:22:04.507Z,37.70
2019-03-27T07:25:10.122Z,38.63
2019-03-27T07:28:14.642Z,39.50
2019-03-27T07:31:19.480Z,42.27
2019-03-27T07:34:24.058Z,41.33
2019-03-27T07:37:28.842Z,42.53
2019-03-27T07:40:33.282Z,35.23
2019-03-27T07:43:38.120Z,36.47
2019-03-27T07:46:42.545Z,42.00
2019-03-27T07:49:47.789Z,38.23
2019-03-27T07:52:52.280Z,42.33
2019-03-27T07:55:56.790Z,41.13
2019-03-27T07:59:01.342Z,30.77
2019-03-27T08:02:06.096Z,31.07
2019-03-27T08:05:11.409Z,36.90
2019-03-27T08:08:16.011Z,35.67
2019-03-27T08:11:20.651Z,35.47
2019-03-27T08:14:25.417Z,34.00
2019-03-27T08:17:29.925Z,34.63
2019-03-27T08:20:34.477Z,33.53
2019-03-27T08:23:39.004Z,28.23
2019-03-27T08:26:43.464Z,34.87
2019-03-27T08:29:50.918Z,30.27
2019-03-27T08:32:55.431Z,28.20
2019-03-27T08:35:59.965Z,31.20
2019-03-27T08:39:07.113Z,33.50
2019-03-27T08:42:11.440Z,28.23
2019-03-27T08:45:16.144Z,25.67
2019-03-27T08:48:20.871Z,26.20
2019-03-27T08:51:25.445Z,21.03
2019-03-27T08:54:29.954Z,27.00
2019-03-27T08:57:34.397Z,26.67
2019-03-27T09:00:50.011Z,22.27
2019-03-27T09:03:54.459Z,27.60
2019-03-27T09:06:59.208Z,24.43
2019-03-27T09:10:04.612Z,19.03
2019-03-27T09:13:09.059Z,15.43
2019-03-27T09:16:14.948Z,13.73
2019-03-27T09:19:19.690Z,16.13
2019-03-27T09:22:24.544Z,12.07
2019-03-27T09:25:29.522Z,12.60
2019-03-27T09:28:34.022Z,14.07
2019-03-27T09:31:44.694Z,14.80
2019-03-27T09:34:44.901Z,12.90
2019-03-27T09:37:50.045Z,15.87
2019-03-27T09:40:54.518Z,11.07
2019-03-27T09:43:59.312Z,15.50
2019-03-27T09:47:03.901Z,11.37
2019-03-27T09:50:09.614Z,15.03
2019-03-27T09:53:14.151Z,12.47
2019-03-27T09:56:19.737Z,17.23
2019-03-27T09:59:24.706Z,15.53
2019-03-27T10:02:29.147Z,11.27
2019-03-27T10:05:33.597Z,10.73
2019-03-27T10:08:38.310Z,8.30
2019-03-27T10:11:42.793Z,10.27
2019-03-27T10:14:47.835Z,13.00
2019-03-27T10:17:52.301Z,9.10
2019-03-27T10:20:56.796Z,7.67
2019-03-27T10:24:01.908Z,9.87
2019-03-27T10:27:06.729Z,9.57
2019-03-27T10:30:11.885Z,11.60
2019-03-27T10:33:16.472Z,8.77
2019-03-27T10:36:21.672Z,6.90
2019-03-27T10:39:26.312Z,8.13
2019-03-27T10:42:30.783Z,11.60
2019-03-27T10:45:36.205Z,9.70
2019-03-27T10:48:51.821Z,13.17
2019-03-27T10:51:47.745Z,10.53
2019-03-27T10:54:52.250Z,9.83
2019-03-27T10:57:57.125Z,7.80
2019-03-27T11:01:01.641Z,8.07
2019-03-27T11:04:06.283Z,7.90
2019-03-27T11:07:10.829Z,9.73
2019-03-27T11:10:15.703Z,9.67
2019-03-27T11:13:23.315Z,7.83
2019-03-27T11:16:28.118Z,10.33
2019-03-27T11:19:33.660Z,8.70
2019-03-27T11:22:38.631Z,9.50
2019-03-27T11:25:43.514Z,13.03
2019-03-27T11:28:48.182Z,9.97
2019-03-27T11:31:52.821Z,10.93
2019-03-27T11:34:57.763Z,13.63
2019-03-27T11:38:04.274Z,12.00
2019-03-27T11:41:12.210Z,14.57
2019-03-27T11:44:16.076Z,14.13
2019-03-27T11:47:20.613Z,12.60
2019-03-27T11:50:26.033Z,9.97
2019-03-27T11:53:30.579Z,14.73
2019-03-27T11:56:35.033Z,9.83
2019-03-27T11:59:52.885Z,9.10
2019-03-27T12:02:45.786Z,9.33
2019-03-27T12:05:50.610Z,7.30
2019-03-27T12:08:55.354Z,7.17
2019-03-27T12:12:01.437Z,8.93
2019-03-27T12:15:07.502Z,10.80
2019-03-27T12:18:14.243Z,12.03
2019-03-27T12:21:18.946Z,8.83
2019-03-27T12:24:23.262Z,5.27
2019-03-27T12:27:27.822Z,6.87
2019-03-27T12:30:32.449Z,9.53
2019-03-27T12:33:38.467Z,8.60
2019-03-27T12:36:42.814Z,8.07
2019-03-27T12:39:47.237Z,10.37
2019-03-27T12:42:52.326Z,7.17
2019-03-27T12:45:57.110Z,8.13
2019-03-27T12:49:01.787Z,5.80
2019-03-27T12:52:06.421Z,7.90
2019-03-27T12:55:11.130Z,10.73
2019-03-27T12:58:15.717Z,7.80
2019-03-27T13:01:20.130Z,9.00
2019-03-27T13:04:24.587Z,9.43
2019-03-27T13:07:29.112Z,8.67
2019-03-27T13:10:33.604Z,7.47
2019-03-27T13:13:38.166Z,6.33
2019-03-27T13:16:43.203Z,6.97
2019-03-27T13:19:47.612Z,7.67
2019-03-27T13:22:52.468Z,8.87
2019-03-27T13:25:56.864Z,7.00
2019-03-27T13:29:01.990Z,7.63
2019-03-27T13:32:07.153Z,8.17
2019-03-27T13:35:11.933Z,6.73
2019-03-27T13:38:16.841Z,6.10
2019-03-27T13:41:21.216Z,8.93
2019-03-27T13:44:36.374Z,7.90
2019-03-27T13:47:32.221Z,6.73
2019-03-27T13:50:37.070Z,10.50
2019-03-27T13:53:41.693Z,5.67
2019-03-27T13:56:46.427Z,6.53
2019-03-27T13:59:51.052Z,6.87
2019-03-27T14:02:55.814Z,4.80
2019-03-27T14:06:00.369Z,6.00
2019-03-27T14:09:07.698Z,5.63
2019-03-27T14:12:12.196Z,8.00
2019-03-27T14:15:17.421Z,7.40
2019-03-27T14:18:21.914Z,6.27
2019-03-27T14:21:26.641Z,5.93
2019-03-27T14:24:31.112Z,6.70
2019-03-27T14:27:36.052Z,6.67
2019-03-27T14:30:54.361Z,5.93
2019-03-27T14:33:58.830Z,6.77
2019-03-27T14:37:03.380Z,4.93
2019-03-27T14:40:08.993Z,8.10
2019-03-27T14:43:13.612Z,6.43
2019-03-27T14:46:17.971Z,6.87
2019-03-27T14:49:22.418Z,5.87
2019-03-27T14:52:26.999Z,6.87
2019-03-27T14:55:31.521Z,6.67
2019-03-27T14:58:36.141Z,6.63
2019-03-27T15:01:40.488Z,7.53
2019-03-27T15:04:44.822Z,5.77
2019-03-27T15:07:49.231Z,5.97
2019-03-27T15:10:53.797Z,9.07
2019-03-27T15:13:58.580Z,6.80
2019-03-27T15:17:02.997Z,7.13
2019-03-27T15:20:07.862Z,5.53
2019-03-27T15:23:12.381Z,6.63
2019-03-27T15:26:16.808Z,6.00
2019-03-27T15:29:21.608Z,6.33
2019-03-27T15:32:26.792Z,4.93
2019-03-27T15:35:31.172Z,4.60
2019-03-27T15:38:35.782Z,6.23
2019-03-27T15:41:40.451Z,6.77
2019-03-27T15:44:45.350Z,5.03
2019-03-27T15:47:50.286Z,6.17
2019-03-27T15:50:58.724Z,4.37
2019-03-27T15:54:01.211Z,7.23
2019-03-27T15:57:05.734Z,5.57
2019-03-27T16:00:10.230Z,5.27
2019-03-27T16:03:14.602Z,5.17
2019-03-27T16:06:19.027Z,5.87
2019-03-27T16:09:23.463Z,4.20
2019-03-27T16:12:27.770Z,5.27
2019-03-27T16:15:32.503Z,5.40
2019-03-27T16:18:37.024Z,7.00
2019-03-27T16:21:41.823Z,5.67
2019-03-27T16:24:46.245Z,5.60
2019-03-27T16:27:50.912Z,4.90
2019-03-27T16:30:55.678Z,6.83
2019-03-27T16:34:00.480Z,5.77
2019-03-27T16:37:04.898Z,4.77
2019-03-27T16:40:09.609Z,5.33
2019-03-27T16:43:14.651Z,4.50
2019-03-27T16:46:19.300Z,8.00
2019-03-27T16:49:24.850Z,13.63
2019-03-27T16:52:29.158Z,5.43
2019-03-27T16:55:33.603Z,6.57
2019-03-27T16:58:38.140Z,6.13
2019-03-27T17:01:42.837Z,4.93
2019-03-27T17:04:47.476Z,4.90
2019-03-27T17:07:51.924Z,5.67
2019-03-27T17:10:56.668Z,6.10
2019-03-27T17:14:01.183Z,6.30
2019-03-27T17:17:05.633Z,8.20
2019-03-27T17:20:10.476Z,7.53
2019-03-27T17:23:18.600Z,9.07
2019-03-27T17:26:22.280Z,12.80
2019-03-27T17:29:27.687Z,8.63
2019-03-27T17:32:32.154Z,7.83
2019-03-27T17:35:36.573Z,9.53
2019-03-27T17:38:41.303Z,9.13
2019-03-27T17:41:46.232Z,8.27
2019-03-27T17:44:52.173Z,8.77
2019-03-27T17:47:56.851Z,8.00
2019-03-27T17:51:01.504Z,8.73
2019-03-27T17:54:19.670Z,8.57
2019-03-27T17:57:12.021Z,8.67
2019-03-27T18:00:21.136Z,8.43
2019-03-27T18:03:25.714Z,10.53
2019-03-27T18:06:30.074Z,7.00
2019-03-27T18:09:34.512Z,9.47
2019-03-27T18:12:39.004Z,12.63
2019-03-27T18:15:43.452Z,12.63
2019-03-27T18:18:47.898Z,9.03
2019-03-27T18:22:06.785Z,10.83
2019-03-27T18:24:59.092Z,14.00
2019-03-27T18:28:03.639Z,10.30
2019-03-27T18:31:08.369Z,11.60
2019-03-27T18:34:12.838Z,9.97
2019-03-27T18:37:17.202Z,10.17
2019-03-27T18:40:21.602Z,9.70
2019-03-27T18:43:26.110Z,8.00
2019-03-27T18:46:30.445Z,12.70
2019-03-27T18:49:35.005Z,11.63
2019-03-27T18:52:39.444Z,9.47
2019-03-27T18:55:43.914Z,10.17
2019-03-27T18:58:49.114Z,10.90
2019-03-27T19:01:56.596Z,12.63
2019-03-27T19:05:02.122Z,12.37
2019-03-27T19:08:07.058Z,20.43
2019-03-27T19:11:12.046Z,14.37
2019-03-27T19:14:16.345Z,13.30
2019-03-27T19:17:21.181Z,15.57
2019-03-27T19:20:25.567Z,11.83
2019-03-27T19:23:29.990Z,12.43
2019-03-27T19:26:34.518Z,11.33
2019-03-27T19:29:39.215Z,12.27
2019-03-27T19:32:43.745Z,11.87
2019-03-27T19:35:48.488Z,15.03
2019-03-27T19:38:53.357Z,14.60
2019-03-27T19:41:57.878Z,10.30
2019-03-27T19:45:02.488Z,12.40
2019-03-27T19:48:07.291Z,10.93
2019-03-27T19:51:13.187Z,12.20
2019-03-27T19:54:26.890Z,16.30
2019-03-27T19:57:23.782Z,11.80
2019-03-27T20:00:28.492Z,10.60
2019-03-27T20:03:34.675Z,10.30
2019-03-27T20:06:39.276Z,9.50
2019-03-27T20:09:43.876Z,9.77
2019-03-27T20:12:49.024Z,10.03
2019-03-27T20:15:53.386Z,13.37
2019-03-27T20:18:57.885Z,14.03
2019-03-27T20:22:03.042Z,12.70
2019-03-27T20:25:08.641Z,15.10
2019-03-27T20:28:13.073Z,19.50
2019-03-27T20:31:17.621Z,16.17
2019-03-27T20:34:23.296Z,18.87
2019-03-27T20:37:27.993Z,15.80
2019-03-27T20:40:32.793Z,14.83
2019-03-27T20:43:37.445Z,14.27
2019-03-27T20:46:41.792Z,15.93
2019-03-27T20:49:46.222Z,12.90
2019-03-27T20:52:50.670Z,15.37
2019-03-27T20:55:55.006Z,13.87
2019-03-27T20:59:01.506Z,13.07
2019-03-27T21:02:06.058Z,12.93
2019-03-27T21:05:10.933Z,13.13
2019-03-27T21:08:15.436Z,13.23
2019-03-27T21:11:20.463Z,10.47
2019-03-27T21:14:24.965Z,15.67
2019-03-27T21:17:29.655Z,14.03
2019-03-27T21:20:34.465Z,12.87
2019-03-27T21:23:38.959Z,12.87
2019-03-27T21:26:43.706Z,13.97
2019-03-27T21:29:48.087Z,12.63
2019-03-27T21:32:52.571Z,9.97
2019-03-27T21:35:56.977Z,15.40
2019-03-27T21:39:01.347Z,17.17
2019-03-27T21:42:06.124Z,12.00
2019-03-27T21:45:11.444Z,12.83
2019-03-27T21:48:16.032Z,13.97
2019-03-27T21:51:20.590Z,11.00
2019-03-27T21:54:25.011Z,13.23
2019-03-27T21:57:29.570Z,14.10
2019-03-27T22:00:38.847Z,10.70
2019-03-27T22:03:43.395Z,13.40
2019-03-27T22:06:48.100Z,12.97
2019-03-27T22:09:52.473Z,10.20
2019-03-27T22:12:57.387Z,13.07
2019-03-27T22:16:01.963Z,9.87
2019-03-27T22:19:06.536Z,12.10
2019-03-27T22:22:10.923Z,10.27
2019-03-27T22:25:15.420Z,10.77
2019-03-27T22:28:19.983Z,14.27
2019-03-27T22:31:24.577Z,14.00
2019-03-27T22:34:28.895Z,15.40
2019-03-27T22:37:33.202Z,12.27
2019-03-27T22:40:37.741Z,12.67
2019-03-27T22:43:42.701Z,11.63
2019-03-27T22:46:47.125Z,11.80
2019-03-27T22:49:51.682Z,17.00
2019-03-27T22:52:56.012Z,13.07
2019-03-27T22:56:00.327Z,10.77
2019-03-27T22:59:04.754Z,13.20
2019-03-27T23:02:09.280Z,9.23
2019-03-27T23:05:13.974Z,10.80
2019-03-27T23:08:18.530Z,11.73
2019-03-27T23:11:22.911Z,13.10
2019-03-27T23:14:27.760Z,10.97
2019-03-27T23:17:32.445Z,15.00
2019-03-27T23:20:37.620Z,13.57
2019-03-27T23:23:42.134Z,13.73
2019-03-27T23:26:46.696Z,14.00
2019-03-27T23:29:51.157Z,14.03
2019-03-27T23:32:55.607Z,12.60
2019-03-27T23:36:00.543Z,14.20
2019-03-27T23:39:07.197Z,10.60
2019-03-27T23:42:16.180Z,11.80
2019-03-27T23:45:20.159Z,11.60
2019-03-27T23:48:25.646Z,18.97
2019-03-27T23:51:30.119Z,10.53
2019-03-27T23:54:35.099Z,12.47
2019-03-27T23:57:39.479Z,15.13
